createdAt,value
2022-10-18T00:00:06.878Z,88.20
2022-10-18T00:02:54.917Z,88.92
2022-10-18T00:05:21.550Z,89.63
2022-10-18T00:07:48.129Z,90.62
2022-10-18T00:10:14.783Z,90.93
2022-10-18T00:12:41.385Z,91.54
2022-10-18T00:15:08.672Z,91.96
2022-10-18T00:17:37.584Z,92.40
2022-10-18T00:20:05.829Z,92.09
2022-10-18T00:22:35.259Z,91.82
2022-10-18T00:25:01.883Z,91.81
2022-10-18T00:27:29.935Z,91.75
2022-10-18T00:29:56.726Z,92.07
2022-10-18T00:32:23.417Z,92.02
2022-10-18T00:34:50.200Z,92.08
2022-10-18T00:37:17.402Z,91.63
2022-10-18T00:39:44.533Z,91.55
2022-10-18T00:42:16.664Z,91.60
2022-10-18T00:44:43.234Z,91.32
2022-10-18T00:47:12.526Z,92.76
2022-10-18T00:49:45.947Z,94.73
2022-10-18T00:52:15.080Z,96.07
2022-10-18T00:54:44.031Z,98.11
2022-10-18T00:57:12.190Z,99.76
2022-10-18T00:59:40.912Z,100.00
2022-10-18T01:02:08.260Z,100.00
2022-10-18T01:04:35.148Z,100.00
2022-10-18T01:07:17.060Z,100.00
2022-10-18T01:09:55.662Z,100.00
2022-10-18T01:12:53.699Z,100.00
2022-10-18T01:15:49.955Z,100.00
2022-10-18T01:18:37.661Z,100.00
2022-10-18T01:21:19.606Z,100.00
2022-10-18T01:23:55.109Z,100.00
2022-10-18T01:26:32.175Z,100.00
2022-10-18T01:29:20.341Z,100.00
2022-10-18T01:31:55.302Z,100.00
2022-10-18T01:34:27.655Z,100.00
2022-10-18T01:36:57.034Z,100.00
2022-10-18T01:39:28.893Z,100.00
2022-10-18T01:41:58.616Z,100.00
2022-10-18T01:44:27.735Z,100.00
2022-10-18T01:46:56.401Z,100.00
2022-10-18T01:49:24.528Z,100.00
2022-10-18T01:51:51.241Z,100.00
2022-10-18T01:54:37.029Z,100.00
2022-10-18T01:57:14.138Z,100.00
2022-10-18T01:59:43.420Z,100.00
2022-10-18T02:02:15.621Z,100.00
2022-10-18T02:04:45.342Z,100.00
2022-10-18T02:08:00.113Z,100.00
2022-10-18T02:10:48.285Z,100.00
2022-10-18T02:13:19.206Z,100.00
2022-10-18T02:15:52.199Z,100.00
2022-10-18T02:18:25.068Z,100.00
2022-10-18T02:20:53.138Z,100.00
2022-10-18T02:23:23.039Z,100.00
2022-10-18T02:25:50.622Z,100.00
2022-10-18T02:28:17.426Z,100.00
2022-10-18T02:31:08.691Z,100.00
2022-10-18T02:33:51.227Z,100.00
2022-10-18T02:36:26.404Z,100.00
2022-10-18T02:38:57.117Z,100.00
2022-10-18T02:41:26.740Z,100.00
2022-10-18T02:43:53.922Z,100.00
2022-10-18T02:46:20.737Z,100.00
2022-10-18T02:48:47.565Z,100.00
2022-10-18T02:51:14.476Z,100.00
2022-10-18T02:53:41.227Z,100.00
2022-10-18T02:56:08.461Z,100.00
2022-10-18T02:58:35.094Z,100.00
2022-10-18T03:01:01.756Z,100.00
2022-10-18T03:03:28.366Z,100.00
2022-10-18T03:05:54.979Z,100.00
2022-10-18T03:08:22.201Z,100.00
2022-10-18T03:10:48.855Z,100.00
2022-10-18T03:13:15.898Z,100.00
2022-10-18T03:15:42.686Z,100.00
2022-10-18T03:18:09.279Z,100.00
2022-10-18T03:20:36.164Z,100.00
2022-10-18T03:23:02.824Z,100.00
2022-10-18T03:25:29.515Z,100.00
2022-10-18T03:27:56.116Z,100.00
2022-10-18T03:30:22.697Z,100.00
2022-10-18T03:32:49.344Z,100.00
2022-10-18T03:35:16.101Z,100.00
2022-10-18T03:37:42.744Z,100.00
2022-10-18T03:40:09.661Z,100.00
2022-10-18T03:42:36.387Z,100.00
2022-10-18T03:45:04.108Z,100.00
2022-10-18T03:47:30.881Z,100.00
2022-10-18T03:49:57.575Z,100.00
2022-10-18T03:52:24.298Z,100.00
2022-10-18T03:54:50.897Z,100.00
2022-10-18T03:57:17.642Z,100.00
2022-10-18T03:59:44.322Z,100.00
2022-10-18T04:02:10.922Z,100.00
2022-10-18T04:04:37.526Z,100.00
2022-10-18T04:07:04.166Z,100.00
2022-10-18T04:09:31.059Z,100.00
2022-10-18T04:11:57.692Z,100.00
2022-10-18T04:14:24.434Z,100.00
2022-10-18T04:16:51.070Z,100.00
2022-10-18T04:19:18.106Z,100.00
2022-10-18T04:21:44.878Z,100.00
2022-10-18T04:24:11.475Z,100.00
2022-10-18T04:26:38.123Z,100.00
2022-10-18T04:29:04.885Z,100.00
2022-10-18T04:31:31.529Z,100.00
2022-10-18T04:33:58.118Z,100.00
2022-10-18T04:36:24.772Z,100.00
2022-10-18T04:38:51.345Z,100.00
2022-10-18T04:41:17.925Z,100.00
2022-10-18T04:46:12.517Z,100.00
2022-10-18T04:48:39.211Z,100.00
2022-10-18T04:51:05.862Z,100.00
2022-10-18T04:53:32.524Z,100.00
2022-10-18T04:55:59.279Z,100.00
2022-10-18T04:58:25.937Z,100.00
2022-10-18T05:00:52.634Z,100.00
2022-10-18T05:03:19.301Z,100.00
2022-10-18T05:06:02.633Z,100.00
2022-10-18T05:08:34.201Z,100.00
2022-10-18T05:11:02.139Z,100.00
2022-10-18T05:13:29.826Z,100.00
2022-10-18T05:15:58.803Z,100.00
2022-10-18T05:18:25.665Z,100.00
2022-10-18T05:20:52.288Z,100.00
2022-10-18T05:23:18.910Z,100.00
2022-10-18T05:25:45.711Z,100.00
2022-10-18T05:28:34.758Z,100.00
2022-10-18T05:31:07.883Z,100.00
2022-10-18T05:33:35.679Z,100.00
2022-10-18T05:36:03.083Z,100.00
2022-10-18T05:38:30.500Z,100.00
2022-10-18T05:40:58.184Z,100.00
2022-10-18T05:43:28.517Z,100.00
2022-10-18T05:45:55.477Z,100.00
2022-10-18T05:48:22.302Z,100.00
2022-10-18T05:50:48.935Z,100.00
2022-10-18T05:53:35.365Z,100.00
2022-10-18T05:56:02.885Z,100.00
2022-10-18T05:58:29.575Z,100.00
2022-10-18T06:01:00.575Z,100.00
2022-10-18T06:03:29.735Z,100.00
2022-10-18T06:06:06.182Z,100.00
2022-10-18T06:08:34.164Z,100.00
2022-10-18T06:11:06.675Z,100.00
2022-10-18T06:13:33.939Z,100.00
2022-10-18T06:16:00.731Z,100.00
2022-10-18T06:18:29.273Z,100.00
2022-10-18T06:20:59.622Z,100.00
2022-10-18T06:23:27.556Z,100.00
2022-10-18T06:25:58.695Z,100.00
2022-10-18T06:28:25.896Z,100.00
2022-10-18T06:30:52.568Z,100.00
2022-10-18T06:33:19.189Z,100.00
2022-10-18T06:36:06.234Z,100.00
2022-10-18T06:38:33.738Z,100.00
2022-10-18T06:41:00.776Z,100.00
2022-10-18T06:43:27.581Z,100.00
2022-10-18T06:45:54.434Z,100.00
2022-10-18T06:48:22.300Z,100.00
2022-10-18T06:50:57.130Z,100.00
2022-10-18T06:53:25.837Z,100.00
2022-10-18T06:55:53.236Z,100.00
2022-10-18T06:58:19.852Z,100.00
2022-10-18T07:00:47.068Z,100.00
2022-10-18T07:03:13.734Z,100.00
2022-10-18T07:05:40.353Z,100.00
2022-10-18T07:08:07.057Z,100.00
2022-10-18T07:10:33.755Z,100.00
2022-10-18T07:13:19.921Z,100.00
2022-10-18T07:15:47.147Z,100.00
2022-10-18T07:18:14.041Z,100.00
2022-10-18T07:20:40.707Z,100.00
2022-10-18T07:23:08.945Z,100.00
2022-10-18T07:25:35.655Z,100.00
2022-10-18T07:28:02.248Z,100.00
2022-10-18T07:30:28.860Z,100.00
2022-10-18T07:32:55.452Z,100.00
2022-10-18T07:35:22.225Z,100.00
2022-10-18T07:37:48.826Z,100.00
2022-10-18T07:40:15.527Z,100.00
2022-10-18T07:42:42.109Z,99.87
2022-10-18T07:45:09.890Z,99.61
2022-10-18T07:47:36.743Z,100.00
2022-10-18T07:50:03.745Z,96.88
2022-10-18T07:52:30.335Z,97.08
2022-10-18T07:54:56.941Z,95.51
2022-10-18T07:57:23.545Z,95.45
2022-10-18T07:59:55.781Z,94.32
2022-10-18T08:02:23.922Z,88.82
2022-10-18T08:04:50.573Z,89.87
2022-10-18T08:07:17.297Z,87.37
2022-10-18T08:09:43.938Z,81.84
2022-10-18T08:12:10.588Z,80.48
2022-10-18T08:14:37.224Z,79.71
2022-10-18T08:17:03.874Z,82.36
2022-10-18T08:19:30.444Z,81.75
2022-10-18T08:21:57.039Z,74.93
2022-10-18T08:24:23.927Z,68.94
2022-10-18T08:26:50.559Z,59.14
2022-10-18T08:29:23.375Z,56.06
2022-10-18T08:31:51.585Z,50.44
2022-10-18T08:34:19.894Z,48.94
2022-10-18T08:36:46.856Z,48.96
2022-10-18T08:39:13.457Z,45.35
2022-10-18T08:41:51.797Z,43.52
2022-10-18T08:44:24.041Z,41.91
2022-10-18T08:46:58.078Z,41.29
2022-10-18T08:49:46.643Z,40.68
2022-10-18T08:52:16.451Z,40.16
2022-10-18T08:54:58.852Z,39.40
2022-10-18T08:57:25.677Z,38.01
2022-10-18T08:59:52.326Z,34.78
2022-10-18T09:02:43.706Z,35.59
2022-10-18T09:05:29.520Z,33.71
2022-10-18T09:07:56.089Z,35.09
2022-10-18T09:10:43.297Z,34.14
2022-10-18T09:13:24.656Z,32.64
2022-10-18T09:15:58.097Z,31.46
2022-10-18T09:18:30.505Z,32.20
2022-10-18T09:20:59.432Z,31.60
2022-10-18T09:23:42.295Z,30.72
2022-10-18T09:26:19.407Z,31.29
2022-10-18T09:29:07.296Z,31.70
2022-10-18T09:31:45.389Z,31.22
2022-10-18T09:34:24.329Z,29.94
2022-10-18T09:36:52.084Z,30.10
2022-10-18T09:39:23.329Z,29.57
2022-10-18T09:41:58.471Z,28.61
2022-10-18T09:44:48.586Z,28.22
2022-10-18T09:47:21.300Z,28.25
2022-10-18T09:49:56.998Z,28.55
2022-10-18T09:52:34.098Z,27.80
2022-10-18T09:55:09.009Z,27.40
2022-10-18T09:57:43.156Z,27.10
2022-10-18T10:00:29.221Z,27.22
2022-10-18T10:02:55.833Z,26.32
2022-10-18T10:05:22.580Z,26.17
2022-10-18T10:07:56.415Z,26.39
2022-10-18T10:10:25.099Z,26.46
2022-10-18T10:13:15.615Z,26.56
2022-10-18T10:16:02.663Z,25.63
2022-10-18T10:18:39.539Z,25.48
2022-10-18T10:21:12.967Z,25.14
2022-10-18T10:23:59.854Z,25.71
2022-10-18T10:26:38.273Z,25.83
2022-10-18T10:29:44.699Z,25.88
2022-10-18T10:32:18.081Z,25.76
2022-10-18T10:34:45.231Z,25.27
2022-10-18T10:37:41.239Z,25.19
2022-10-18T10:40:19.616Z,24.88
2022-10-18T10:43:33.041Z,25.58
2022-10-18T10:46:05.590Z,25.10
2022-10-18T10:48:57.032Z,25.05
2022-10-18T10:51:39.193Z,24.30
2022-10-18T10:54:27.310Z,24.76
2022-10-18T10:56:57.591Z,24.60
2022-10-18T10:59:26.572Z,24.36
2022-10-18T11:02:22.578Z,24.36
2022-10-18T11:04:51.441Z,24.21
2022-10-18T11:07:35.751Z,23.85
2022-10-18T11:10:18.865Z,22.97
2022-10-18T11:12:49.906Z,21.25
2022-10-18T11:15:35.823Z,22.04
2022-10-18T11:18:08.111Z,21.62
2022-10-18T11:20:42.592Z,20.95
2022-10-18T11:23:13.853Z,19.78
2022-10-18T11:25:45.725Z,20.27
2022-10-18T11:28:31.429Z,20.21
2022-10-18T11:30:58.701Z,20.33
2022-10-18T11:34:07.166Z,21.22
2022-10-18T11:36:40.382Z,21.29
2022-10-18T11:39:25.541Z,20.48
2022-10-18T11:42:00.430Z,20.88
2022-10-18T11:44:49.427Z,21.48
2022-10-18T11:47:55.880Z,21.15
2022-10-18T11:50:37.826Z,21.71
2022-10-18T11:53:19.925Z,20.85
2022-10-18T11:56:12.369Z,20.74
2022-10-18T11:59:02.086Z,19.96
2022-10-18T12:01:41.268Z,20.12
2022-10-18T12:04:16.874Z,20.23
2022-10-18T12:06:47.125Z,20.28
2022-10-18T12:09:44.806Z,19.81
2022-10-18T12:12:16.061Z,20.66
2022-10-18T12:14:50.441Z,20.71
2022-10-18T12:17:46.382Z,20.36
2022-10-18T12:20:37.408Z,19.82
2022-10-18T12:23:10.879Z,19.56
2022-10-18T12:25:41.631Z,19.14
2022-10-18T12:28:08.235Z,19.14
2022-10-18T12:30:53.680Z,19.80
2022-10-18T12:33:28.595Z,20.10
2022-10-18T12:36:11.108Z,19.99
2022-10-18T12:38:45.288Z,20.09
2022-10-18T12:41:28.113Z,19.71
2022-10-18T12:44:07.512Z,20.12
2022-10-18T12:46:53.059Z,19.90
2022-10-18T12:49:28.509Z,19.85
2022-10-18T12:52:18.557Z,20.16
2022-10-18T12:55:06.112Z,20.56
2022-10-18T12:57:51.098Z,20.27
2022-10-18T13:00:29.701Z,20.48
2022-10-18T13:03:26.160Z,20.46
2022-10-18T13:05:57.204Z,21.02
2022-10-18T13:08:26.604Z,20.86
2022-10-18T13:11:08.733Z,21.45
2022-10-18T13:14:23.568Z,21.65
2022-10-18T13:17:18.545Z,22.84
2022-10-18T13:20:07.727Z,22.52
2022-10-18T13:23:38.279Z,22.96
2022-10-18T13:26:12.278Z,22.98
2022-10-18T13:29:11.408Z,23.81
2022-10-18T13:31:58.196Z,24.00
2022-10-18T13:34:37.897Z,23.98
2022-10-18T13:37:18.386Z,24.38
2022-10-18T13:39:45.629Z,24.93
2022-10-18T13:42:15.317Z,25.28
2022-10-18T13:44:44.147Z,25.52
2022-10-18T13:47:31.467Z,25.52
2022-10-18T13:50:32.322Z,26.16
2022-10-18T13:53:04.710Z,26.39
2022-10-18T13:56:10.260Z,26.71
2022-10-18T13:59:15.129Z,27.53
2022-10-18T14:02:08.491Z,27.82
2022-10-18T14:04:43.447Z,28.03
2022-10-18T14:07:11.378Z,27.42
2022-10-18T14:09:52.354Z,27.61
2022-10-18T14:12:20.858Z,28.71
2022-10-18T14:15:06.887Z,29.63
2022-10-18T14:17:35.726Z,30.59
2022-10-18T14:20:20.597Z,31.41
2022-10-18T14:23:00.563Z,31.70
2022-10-18T14:25:29.964Z,32.06
2022-10-18T14:28:10.035Z,32.48
2022-10-18T14:30:52.184Z,32.68
2022-10-18T14:33:35.337Z,33.21
2022-10-18T14:36:09.199Z,33.13
2022-10-18T14:38:49.866Z,32.83
2022-10-18T14:41:21.738Z,32.81
2022-10-18T14:43:50.228Z,33.22
2022-10-18T14:46:28.111Z,33.86
2022-10-18T14:49:01.658Z,34.40
2022-10-18T14:51:33.577Z,34.85
2022-10-18T14:54:00.569Z,35.60
2022-10-18T14:56:29.652Z,36.32
2022-10-18T14:58:59.512Z,37.07
2022-10-18T15:01:30.260Z,37.34
2022-10-18T15:03:59.172Z,37.60
2022-10-18T15:06:26.566Z,37.99
2022-10-18T15:08:57.475Z,38.48
2022-10-18T15:11:25.779Z,38.37
2022-10-18T15:13:57.401Z,38.66
2022-10-18T15:16:27.560Z,38.65
2022-10-18T15:19:01.593Z,39.27
2022-10-18T15:21:28.311Z,39.79
2022-10-18T15:24:14.942Z,40.08
2022-10-18T15:26:44.474Z,40.35
2022-10-18T15:29:18.874Z,40.48
2022-10-18T15:31:47.629Z,40.43
2022-10-18T15:34:17.164Z,40.32
2022-10-18T15:36:44.707Z,40.49
2022-10-18T15:39:20.383Z,40.56
2022-10-18T15:41:54.397Z,40.49
2022-10-18T15:44:52.737Z,41.26
2022-10-18T15:47:24.409Z,40.87
2022-10-18T15:49:54.937Z,40.80
2022-10-18T15:52:24.579Z,40.52
2022-10-18T15:54:51.172Z,40.56
2022-10-18T15:57:17.873Z,40.80
2022-10-18T16:00:03.440Z,41.05
2022-10-18T16:02:38.589Z,41.15
2022-10-18T16:05:05.512Z,40.92
2022-10-18T16:07:32.428Z,41.01
2022-10-18T16:09:59.264Z,41.15
2022-10-18T16:12:25.938Z,41.04
2022-10-18T16:14:52.549Z,40.70
2022-10-18T16:17:19.525Z,40.95
2022-10-18T16:19:46.193Z,40.68
2022-10-18T16:24:44.985Z,40.88
2022-10-18T16:27:11.764Z,40.93
2022-10-18T16:29:38.391Z,41.29
2022-10-18T16:32:05.045Z,41.65
2022-10-18T16:34:31.763Z,41.69
2022-10-18T16:36:58.666Z,41.93
2022-10-18T16:39:25.751Z,42.35
2022-10-18T16:41:52.401Z,42.48
2022-10-18T16:44:19.221Z,42.69
2022-10-18T16:46:47.646Z,43.15
2022-10-18T16:49:24.445Z,43.27
2022-10-18T16:51:53.431Z,43.26
2022-10-18T16:54:20.215Z,43.33
2022-10-18T16:56:49.899Z,43.36
2022-10-18T16:59:28.727Z,43.43
2022-10-18T17:01:55.566Z,43.71
2022-10-18T17:04:22.337Z,43.88
2022-10-18T17:06:49.162Z,44.12
2022-10-18T17:09:16.151Z,44.09
2022-10-18T17:11:43.013Z,44.18
2022-10-18T17:14:09.614Z,44.36
2022-10-18T17:16:38.158Z,44.24
2022-10-18T17:19:06.990Z,44.15
2022-10-18T17:21:34.461Z,44.19
2022-10-18T17:24:02.623Z,44.23
2022-10-18T17:26:30.280Z,44.30
2022-10-18T17:29:00.615Z,44.45
2022-10-18T17:31:29.064Z,44.70
2022-10-18T17:33:57.818Z,44.67
2022-10-18T17:36:24.499Z,44.62
2022-10-18T17:38:52.451Z,44.95
2022-10-18T17:41:19.544Z,44.96
2022-10-18T17:43:47.508Z,44.94
2022-10-18T17:46:14.437Z,44.92
2022-10-18T17:48:41.550Z,44.99
2022-10-18T17:51:09.902Z,45.18
2022-10-18T17:53:36.863Z,45.54
2022-10-18T17:56:04.166Z,45.65
2022-10-18T17:58:31.629Z,45.82
2022-10-18T18:01:18.133Z,46.10
2022-10-18T18:03:47.107Z,46.56
2022-10-18T18:06:17.854Z,46.99
2022-10-18T18:08:45.343Z,47.57
2022-10-18T18:11:12.477Z,47.94
2022-10-18T18:13:39.319Z,48.42
2022-10-18T18:16:21.450Z,48.75
2022-10-18T18:18:50.414Z,49.18
2022-10-18T18:21:17.780Z,49.08
2022-10-18T18:23:45.054Z,49.43
2022-10-18T18:26:13.625Z,49.57
2022-10-18T18:28:40.587Z,49.69
2022-10-18T18:31:25.210Z,49.68
2022-10-18T18:33:54.135Z,49.69
2022-10-18T18:36:21.757Z,49.84
2022-10-18T18:38:55.463Z,50.10
2022-10-18T18:41:26.442Z,49.94
2022-10-18T18:44:03.677Z,49.67
2022-10-18T18:46:36.053Z,49.74
2022-10-18T18:49:02.960Z,49.98
2022-10-18T18:51:29.884Z,49.91
2022-10-18T18:53:56.566Z,49.92
2022-10-18T18:56:25.358Z,50.05
2022-10-18T18:58:53.569Z,50.37
2022-10-18T19:01:23.958Z,50.70
2022-10-18T19:03:53.040Z,51.26
2022-10-18T19:06:26.703Z,51.51
2022-10-18T19:08:59.718Z,52.27
2022-10-18T19:11:28.865Z,52.74
2022-10-18T19:13:55.665Z,53.28
2022-10-18T19:16:25.787Z,53.88
2022-10-18T19:18:58.022Z,54.09
2022-10-18T19:21:27.048Z,54.57
2022-10-18T19:23:55.529Z,54.77
2022-10-18T19:26:31.730Z,55.04
2022-10-18T19:29:04.910Z,55.37
2022-10-18T19:31:31.895Z,55.52
2022-10-18T19:33:59.599Z,55.55
2022-10-18T19:36:28.185Z,55.83
2022-10-18T19:38:55.267Z,56.12
2022-10-18T19:41:23.137Z,55.78
2022-10-18T19:43:51.791Z,55.71
2022-10-18T19:46:18.476Z,55.50
2022-10-18T19:48:45.222Z,55.36
2022-10-18T19:51:15.980Z,55.28
2022-10-18T19:53:46.401Z,54.90
2022-10-18T19:56:18.458Z,54.75
2022-10-18T19:58:45.891Z,54.14
2022-10-18T20:01:13.870Z,54.73
2022-10-18T20:03:40.707Z,55.14
2022-10-18T20:06:07.916Z,56.29
2022-10-18T20:08:35.671Z,57.03
2022-10-18T20:11:05.663Z,57.31
2022-10-18T20:13:32.864Z,57.39
2022-10-18T20:15:59.993Z,57.62
2022-10-18T20:18:26.887Z,57.89
2022-10-18T20:20:53.637Z,58.54
2022-10-18T20:23:21.220Z,58.37
2022-10-18T20:25:56.772Z,58.63
2022-10-18T20:28:24.453Z,58.91
2022-10-18T20:31:10.108Z,58.98
2022-10-18T20:33:37.631Z,59.69
2022-10-18T20:36:09.964Z,59.48
2022-10-18T20:38:38.914Z,59.73
2022-10-18T20:41:11.972Z,59.87
2022-10-18T20:43:39.347Z,60.34
2022-10-18T20:46:07.216Z,61.43
2022-10-18T20:48:34.838Z,62.19
2022-10-18T20:51:10.102Z,62.74
2022-10-18T20:53:37.303Z,63.42
2022-10-18T20:56:06.134Z,63.29
2022-10-18T20:58:33.986Z,64.05
2022-10-18T21:01:05.632Z,64.70
2022-10-18T21:03:32.549Z,64.94
2022-10-18T21:06:01.748Z,66.07
2022-10-18T21:08:28.750Z,66.47
2022-10-18T21:10:55.312Z,67.11
2022-10-18T21:13:21.916Z,67.46
2022-10-18T21:15:56.454Z,67.84
2022-10-18T21:18:29.154Z,68.17
2022-10-18T21:21:05.443Z,69.31
2022-10-18T21:23:33.247Z,69.53
2022-10-18T21:25:59.838Z,70.24
2022-10-18T21:28:26.538Z,70.22
2022-10-18T21:30:53.339Z,70.90
2022-10-18T21:33:19.985Z,71.04
2022-10-18T21:35:46.673Z,71.70
2022-10-18T21:38:13.351Z,72.22
2022-10-18T21:40:43.920Z,73.59
2022-10-18T21:43:11.292Z,73.47
2022-10-18T21:45:37.905Z,73.15
2022-10-18T21:48:04.927Z,73.32
2022-10-18T21:50:33.690Z,73.33
2022-10-18T21:53:00.371Z,73.68
2022-10-18T21:55:27.042Z,73.69
2022-10-18T21:57:53.654Z,74.19
2022-10-18T22:00:20.542Z,74.20
2022-10-18T22:02:47.619Z,74.33
2022-10-18T22:05:14.220Z,74.13
2022-10-18T22:07:40.949Z,74.35
2022-10-18T22:10:07.874Z,74.53
2022-10-18T22:12:34.485Z,74.95
2022-10-18T22:15:02.117Z,75.83
2022-10-18T22:17:29.030Z,76.60
2022-10-18T22:19:55.643Z,76.48
2022-10-18T22:22:23.026Z,76.73
2022-10-18T22:24:49.598Z,77.47
2022-10-18T22:27:16.197Z,78.09
2022-10-18T22:29:42.792Z,79.47
2022-10-18T22:32:09.515Z,80.31
2022-10-18T22:34:36.226Z,81.72
2022-10-18T22:37:02.916Z,83.06
2022-10-18T22:39:29.570Z,83.34
2022-10-18T22:41:56.761Z,84.18
2022-10-18T22:44:24.205Z,84.49
2022-10-18T22:46:51.055Z,83.91
2022-10-18T22:49:17.748Z,83.75
2022-10-18T22:51:44.435Z,83.82
2022-10-18T22:54:11.024Z,84.66
2022-10-18T22:56:38.014Z,84.90
2022-10-18T22:59:05.076Z,85.40
2022-10-18T23:01:31.793Z,85.12
2022-10-18T23:03:59.607Z,86.33
2022-10-18T23:06:32.320Z,86.54
2022-10-18T23:09:01.630Z,87.50
2022-10-18T23:11:28.476Z,88.52
2022-10-18T23:13:55.295Z,88.81
2022-10-18T23:16:22.686Z,87.48
2022-10-18T23:18:51.319Z,86.50
2022-10-18T23:21:18.491Z,87.22
2022-10-18T23:23:45.181Z,88.19
2022-10-18T23:26:17.808Z,89.72
2022-10-18T23:28:46.826Z,91.61
2022-10-18T23:31:19.390Z,93.02
2022-10-18T23:33:48.158Z,94.35
2022-10-18T23:36:15.840Z,94.77
2022-10-18T23:38:43.257Z,93.89
2022-10-18T23:41:11.811Z,93.60
2022-10-18T23:43:39.095Z,95.19
2022-10-18T23:46:05.997Z,96.47
2022-10-18T23:48:33.686Z,97.63
2022-10-18T23:51:01.162Z,98.22
2022-10-18T23:53:28.603Z,98.53
2022-10-18T23:55:58.032Z,99.11
2022-10-18T23:58:26.255Z,99.83
